Terminal Aerodrome Forecast
Issued by NWS

Home | Current Version | Previous Version | Text Only | Print | Product List | Glossary On
Versions: 1 2 3 4 5 6 7 8 9 10 11 12 13
000
FTUS44 KOUN 172340
TAFCSM
TAF
KCSM 172340Z 1800/1824 06010KT P6SM -RA OVC040
     FM180100 07008KT P6SM FEW015 OVC035
     FM180800 13006KT P6SM BKN015
     FM181600 17013KT P6SM SCT035
     FM182000 17014G21KT P6SM FEW050=

USA.gov is the U.S. government's official web portal to all federal, state and local government web resources and services.